Laurel Fork, Kentucky
Current Conditions -  °F | °C
As of 8:55 AM on Monday 24 Nov 2014 (Local Time) from K1A6 Reporting Station
Overcast Overcast  
Wind Chill: 62°   Ceiling: 2900
Heat Index: 62°   Visibility: 10mi
Dew Point: 53°   Wind: 13mph
Humidity: 73%   Direction: 210°SSW
Pressure: 29.64"   Gusts: 16mph
Location:  36.6304°N, 83.8894°W
Report Text: K1A6 241355Z AUTO 21011G14KT 10SM BKN029 OVC035 17/12 A2964 RMK AO2 T01650116
Loading
Personal Weather Stations






























Interactive Weather Map New forecast layout! Learn more

10-Day Weather Forecast

Advertisements
Track Severe Weather on mobile